createdAt,value
2019-06-01T00:02:12.583Z,64.19
2019-06-01T00:07:19.258Z,64.35
2019-06-01T00:12:25.958Z,64.64
2019-06-01T00:17:32.736Z,64.79
2019-06-01T00:22:39.425Z,65.18
2019-06-01T00:27:46.798Z,65.58
2019-06-01T00:32:55.775Z,65.71
2019-06-01T00:38:02.472Z,65.89
2019-06-01T00:43:09.050Z,66.19
2019-06-01T00:48:15.754Z,66.59
2019-06-01T00:53:22.434Z,66.60
2019-06-01T00:58:29.031Z,66.41
2019-06-01T01:03:35.610Z,66.90
2019-06-01T01:08:42.323Z,67.18
2019-06-01T01:13:49.242Z,67.23
2019-06-01T01:18:56.061Z,67.18
2019-06-01T01:24:02.894Z,67.21
2019-06-01T01:29:09.357Z,67.20
2019-06-01T01:34:15.960Z,67.31
2019-06-01T01:39:22.665Z,67.50
2019-06-01T01:44:29.234Z,67.65
2019-06-01T01:49:35.829Z,67.90
2019-06-01T01:54:43.337Z,68.33
2019-06-01T01:59:51.275Z,68.32
2019-06-01T02:04:58.035Z,68.29
2019-06-01T02:10:10.904Z,68.05
2019-06-01T02:15:18.292Z,68.06
2019-06-01T02:20:24.974Z,68.03
2019-06-01T02:25:32.152Z,68.58
2019-06-01T02:30:39.740Z,68.79
2019-06-01T02:35:46.325Z,69.17
2019-06-01T02:40:54.754Z,68.88
2019-06-01T02:46:03.402Z,69.48
2019-06-01T02:51:13.206Z,69.65
2019-06-01T02:56:19.834Z,69.47
2019-06-01T03:01:36.711Z,69.39
2019-06-01T03:06:45.328Z,69.67
2019-06-01T03:11:54.096Z,69.88
2019-06-01T03:17:02.015Z,70.23
2019-06-01T03:22:10.655Z,70.91
2019-06-01T03:27:19.185Z,71.13
2019-06-01T03:32:36.296Z,71.03
2019-06-01T03:37:34.622Z,70.75
2019-06-01T03:42:42.023Z,70.91
2019-06-01T03:47:49.945Z,71.36
2019-06-01T03:52:56.645Z,71.41
2019-06-01T03:58:04.952Z,71.65
2019-06-01T04:03:11.646Z,71.80
2019-06-01T04:08:19.264Z,71.92
2019-06-01T04:13:25.752Z,71.53
2019-06-01T04:18:32.839Z,70.92
2019-06-01T04:23:40.283Z,70.78
2019-06-01T04:28:47.067Z,69.51
2019-06-01T04:33:55.381Z,68.02
2019-06-01T04:39:03.307Z,67.61
2019-06-01T04:44:14.203Z,67.29
2019-06-01T04:49:23.414Z,66.84
2019-06-01T04:54:29.965Z,66.62
2019-06-01T04:59:37.940Z,66.60
2019-06-01T05:04:45.031Z,66.76
2019-06-01T05:09:51.552Z,66.95
2019-06-01T05:14:58.121Z,66.31
2019-06-01T05:20:10.370Z,66.07
2019-06-01T05:25:18.369Z,65.88
2019-06-01T05:30:25.184Z,65.49
2019-06-01T05:35:31.846Z,64.88
2019-06-01T05:40:41.923Z,64.28
2019-06-01T05:45:48.636Z,63.07
2019-06-01T05:50:55.760Z,62.34
2019-06-01T05:56:03.170Z,62.10
2019-06-01T06:01:10.369Z,61.69
2019-06-01T06:06:17.930Z,61.55
2019-06-01T06:11:24.670Z,61.61
2019-06-01T06:16:31.307Z,61.98
2019-06-01T06:21:37.912Z,60.08
2019-06-01T06:26:44.681Z,60.03
2019-06-01T06:31:51.387Z,59.09
2019-06-01T06:36:58.191Z,60.05
2019-06-01T06:42:08.510Z,60.57
2019-06-01T06:47:15.227Z,58.69
2019-06-01T06:52:21.910Z,58.95
2019-06-01T06:57:28.626Z,59.59
2019-06-01T07:02:36.428Z,60.12
2019-06-01T07:12:52.278Z,58.26
2019-06-01T07:17:59.089Z,58.19
2019-06-01T07:23:05.877Z,57.98
2019-06-01T07:28:12.702Z,57.61
2019-06-01T07:33:20.464Z,56.94
2019-06-01T07:38:28.742Z,56.70
2019-06-01T07:43:35.689Z,55.83
2019-06-01T07:48:42.400Z,55.33
2019-06-01T07:53:49.092Z,54.30
2019-06-01T07:58:55.873Z,55.27
2019-06-01T08:04:02.771Z,54.86
2019-06-01T08:09:09.466Z,54.87
2019-06-01T08:14:16.126Z,55.48
2019-06-01T08:19:23.780Z,54.24
2019-06-01T08:24:30.389Z,53.43
2019-06-01T08:29:37.027Z,53.07
2019-06-01T08:34:43.729Z,52.35
2019-06-01T08:39:52.485Z,52.03
2019-06-01T08:44:59.170Z,52.04
2019-06-01T08:50:07.633Z,50.99
2019-06-01T08:55:14.246Z,51.47
2019-06-01T09:00:21.287Z,51.32
2019-06-01T09:05:28.933Z,51.86
2019-06-01T09:10:36.011Z,51.93
2019-06-01T09:15:42.464Z,50.74
2019-06-01T09:20:48.718Z,51.04
2019-06-01T09:25:56.817Z,49.95
2019-06-01T09:31:04.881Z,49.72
2019-06-01T09:36:11.567Z,49.08
2019-06-01T09:41:18.174Z,47.87
2019-06-01T09:46:24.617Z,48.04
2019-06-01T09:51:31.397Z,48.01
2019-06-01T09:56:39.808Z,47.48
2019-06-01T10:01:46.190Z,48.04
2019-06-01T10:06:52.630Z,47.57
2019-06-01T10:11:59.126Z,46.65
2019-06-01T10:17:05.575Z,46.02
2019-06-01T10:22:12.037Z,46.58
2019-06-01T10:27:18.519Z,46.58
2019-06-01T10:32:24.860Z,46.13
2019-06-01T10:37:31.478Z,45.83
2019-06-01T10:42:38.189Z,45.73
2019-06-01T10:47:45.843Z,45.69
2019-06-01T10:52:52.389Z,45.52
2019-06-01T10:57:58.969Z,45.73
2019-06-01T11:03:05.624Z,44.42
2019-06-01T11:08:12.196Z,44.34
2019-06-01T11:13:18.611Z,44.94
2019-06-01T11:18:25.300Z,45.45
2019-06-01T11:23:33.211Z,44.74
2019-06-01T11:28:40.149Z,44.54
2019-06-01T11:33:46.963Z,44.69
2019-06-01T11:44:08.439Z,44.72
2019-06-01T11:49:14.825Z,45.08
2019-06-01T11:54:21.273Z,44.48
2019-06-01T11:59:27.841Z,44.25
2019-06-01T12:04:35.751Z,44.55
2019-06-01T12:09:45.968Z,43.47
2019-06-01T12:14:52.731Z,43.27
2019-06-01T12:19:59.290Z,42.31
2019-06-01T12:25:07.115Z,42.71
2019-06-01T12:30:14.023Z,42.45
2019-06-01T12:35:20.822Z,42.16
2019-06-01T12:40:27.392Z,41.77
2019-06-01T12:45:34.079Z,41.93
2019-06-01T12:50:40.992Z,41.81
2019-06-01T12:55:48.990Z,41.62
2019-06-01T13:00:55.674Z,41.50
2019-06-01T13:06:02.019Z,41.43
2019-06-01T13:11:08.877Z,41.79
2019-06-01T13:16:15.308Z,41.45
2019-06-01T13:21:21.938Z,41.21
2019-06-01T13:26:29.150Z,41.48
2019-06-01T13:31:35.952Z,41.37
2019-06-01T13:36:42.537Z,41.40
2019-06-01T13:41:49.592Z,41.78
2019-06-01T13:46:56.395Z,41.80
2019-06-01T13:52:03.011Z,42.24
2019-06-01T13:57:09.703Z,42.05
2019-06-01T14:02:16.195Z,41.90
2019-06-01T14:07:22.670Z,41.75
2019-06-01T14:12:29.253Z,42.42
2019-06-01T14:17:35.620Z,42.17
2019-06-01T14:22:42.538Z,42.03
2019-06-01T14:27:50.114Z,41.73
2019-06-01T14:32:56.989Z,42.25
2019-06-01T14:38:03.697Z,42.26
2019-06-01T14:43:10.146Z,41.70
2019-06-01T14:48:16.530Z,42.24
2019-06-01T14:53:23.157Z,41.82
2019-06-01T14:58:30.206Z,42.36
2019-06-01T15:03:36.790Z,42.66
2019-06-01T15:08:43.350Z,42.60
2019-06-01T15:13:50.330Z,42.09
2019-06-01T15:18:57.696Z,42.20
2019-06-01T15:24:04.543Z,42.52
2019-06-01T15:29:10.877Z,42.49
2019-06-01T15:34:17.253Z,42.17
2019-06-01T15:39:25.407Z,42.68
2019-06-01T15:44:31.846Z,42.32
2019-06-01T15:49:38.115Z,42.21
2019-06-01T15:54:44.697Z,42.06
2019-06-01T15:59:52.435Z,42.27
2019-06-01T16:04:59.323Z,42.40
2019-06-01T16:10:09.700Z,42.72
2019-06-01T16:15:16.606Z,42.49
2019-06-01T16:20:23.390Z,42.35
2019-06-01T16:25:29.906Z,42.61
2019-06-01T16:30:36.349Z,42.65
2019-06-01T16:35:42.787Z,42.64
2019-06-01T16:40:49.383Z,42.28
2019-06-01T16:45:59.746Z,42.54
2019-06-01T16:51:06.117Z,42.83
2019-06-01T16:56:12.653Z,42.62
2019-06-01T17:01:19.279Z,42.81
2019-06-01T17:06:25.859Z,43.01
2019-06-01T17:11:33.342Z,43.15
2019-06-01T17:16:39.960Z,43.23
2019-06-01T17:21:49.055Z,43.45
2019-06-01T17:26:55.686Z,43.73
2019-06-01T17:32:18.974Z,43.78
2019-06-01T17:37:10.683Z,44.04
2019-06-01T17:42:17.380Z,44.51
2019-06-01T17:47:27.067Z,44.89
2019-06-01T17:52:32.319Z,45.11
2019-06-01T17:57:39.003Z,45.54
2019-06-01T18:02:45.430Z,45.78
2019-06-01T18:07:52.054Z,45.77
2019-06-01T18:12:58.487Z,45.95
2019-06-01T18:18:06.481Z,45.90
2019-06-01T18:23:13.569Z,46.11
2019-06-01T18:28:20.343Z,46.26
2019-06-01T18:33:27.168Z,46.66
2019-06-01T18:38:33.697Z,47.12
2019-06-01T18:43:40.186Z,47.42
2019-06-01T18:48:46.653Z,47.91
2019-06-01T18:53:54.440Z,48.19
2019-06-01T18:59:01.039Z,48.53
2019-06-01T19:04:09.700Z,48.94
2019-06-01T19:09:16.340Z,49.34
2019-06-01T19:14:22.856Z,49.82
2019-06-01T19:19:31.605Z,50.26
2019-06-01T19:24:38.157Z,50.73
2019-06-01T19:29:44.859Z,51.18
2019-06-01T19:34:51.645Z,51.82
2019-06-01T19:39:58.535Z,52.30
2019-06-01T19:45:23.543Z,52.59
2019-06-01T19:50:18.367Z,52.86
2019-06-01T19:55:24.853Z,53.04
2019-06-01T20:00:31.469Z,54.36
2019-06-01T20:05:37.982Z,55.08
2019-06-01T20:10:44.431Z,55.69
2019-06-01T20:15:50.883Z,56.44
2019-06-01T20:20:57.430Z,56.86
2019-06-01T20:26:04.182Z,57.43
2019-06-01T20:31:11.731Z,58.00
2019-06-01T20:36:18.625Z,58.47
2019-06-01T20:41:25.281Z,59.21
2019-06-01T20:46:31.854Z,59.78
2019-06-01T21:04:32.103Z,60.61
2019-06-01T21:19:38.283Z,60.61
2019-06-01T21:34:44.318Z,61.32
2019-06-01T21:49:50.752Z,61.59
2019-06-01T22:04:57.077Z,62.84
2019-06-01T22:20:03.252Z,63.99
2019-06-01T22:35:12.649Z,64.36
2019-06-01T22:50:18.933Z,64.92
2019-06-01T23:05:25.275Z,65.46
2019-06-01T23:20:32.238Z,65.22
2019-06-01T23:35:39.722Z,66.49
2019-06-01T23:50:46.029Z,66.63
